createdAt,value
2022-10-19T00:01:15.065Z,11.20
2022-10-19T00:03:42.608Z,11.20
2022-10-19T00:06:26.253Z,11.10
2022-10-19T00:09:03.588Z,11.10
2022-10-19T00:11:31.481Z,11.10
2022-10-19T00:14:01.223Z,11.10
2022-10-19T00:16:29.937Z,11.00
2022-10-19T00:18:58.271Z,11.00
2022-10-19T00:21:25.477Z,11.00
2022-10-19T00:23:52.549Z,11.00
2022-10-19T00:26:19.867Z,11.00
2022-10-19T00:28:47.277Z,11.00
2022-10-19T00:31:16.207Z,11.00
2022-10-19T00:33:44.528Z,10.90
2022-10-19T00:36:16.849Z,10.90
2022-10-19T00:38:44.051Z,10.90
2022-10-19T00:41:11.251Z,10.90
2022-10-19T00:44:14.091Z,10.90
2022-10-19T00:46:42.795Z,10.80
2022-10-19T00:49:18.274Z,10.80
2022-10-19T00:51:47.214Z,10.80
2022-10-19T00:54:14.624Z,10.80
2022-10-19T00:56:42.892Z,10.90
2022-10-19T00:59:10.141Z,10.80
2022-10-19T01:01:39.799Z,10.90
2022-10-19T01:04:07.016Z,10.90
2022-10-19T01:06:34.142Z,10.90
2022-10-19T01:09:01.769Z,10.90
2022-10-19T01:11:52.523Z,10.90
2022-10-19T01:14:47.644Z,10.90
2022-10-19T01:17:59.932Z,10.90
2022-10-19T01:20:30.836Z,10.90
2022-10-19T01:23:40.422Z,10.90
2022-10-19T01:26:14.693Z,10.90
2022-10-19T01:28:54.265Z,10.90
2022-10-19T01:31:29.836Z,10.90
2022-10-19T01:34:09.054Z,11.00
2022-10-19T01:36:39.378Z,11.00
2022-10-19T01:39:44.215Z,11.00
2022-10-19T01:42:15.452Z,11.00
2022-10-19T01:44:53.503Z,11.00
2022-10-19T01:47:28.338Z,11.00
2022-10-19T01:50:10.395Z,11.10
2022-10-19T01:52:37.848Z,11.10
2022-10-19T01:55:05.430Z,11.10
2022-10-19T01:57:38.917Z,11.10
2022-10-19T02:00:07.677Z,11.10
2022-10-19T02:02:43.385Z,11.10
2022-10-19T02:05:10.542Z,11.20
2022-10-19T02:07:38.114Z,11.20
2022-10-19T02:10:05.986Z,11.20
2022-10-19T02:12:33.402Z,11.30
2022-10-19T02:15:10.412Z,11.30
2022-10-19T02:17:40.882Z,11.30
2022-10-19T02:20:08.041Z,11.40
2022-10-19T02:22:35.525Z,11.40
2022-10-19T02:25:03.542Z,11.50
2022-10-19T02:27:33.790Z,11.50
2022-10-19T02:30:04.000Z,11.50
2022-10-19T02:32:31.851Z,11.50
2022-10-19T02:34:59.819Z,11.50
2022-10-19T02:37:27.206Z,11.60
2022-10-19T02:39:54.353Z,11.60
2022-10-19T02:42:39.009Z,11.60
2022-10-19T02:45:10.826Z,11.60
2022-10-19T02:47:43.031Z,11.60
2022-10-19T02:50:10.488Z,11.60
2022-10-19T02:52:41.178Z,11.70
2022-10-19T02:55:08.790Z,11.70
2022-10-19T02:57:36.423Z,11.70
2022-10-19T03:00:05.862Z,11.70
2022-10-19T03:02:34.636Z,11.80
2022-10-19T03:05:01.848Z,11.80
2022-10-19T03:07:28.929Z,11.80
2022-10-19T03:09:56.033Z,11.80
2022-10-19T03:12:23.439Z,11.80
2022-10-19T03:14:50.515Z,11.80
2022-10-19T03:17:17.648Z,11.80
2022-10-19T03:19:44.939Z,11.90
2022-10-19T03:22:13.951Z,11.90
2022-10-19T03:24:41.500Z,11.90
2022-10-19T03:27:08.794Z,11.90
2022-10-19T03:29:35.894Z,11.90
2022-10-19T03:32:03.000Z,11.90
2022-10-19T03:34:30.660Z,11.90
2022-10-19T03:36:59.820Z,11.90
2022-10-19T03:39:27.082Z,11.90
2022-10-19T03:41:54.205Z,11.90
2022-10-19T03:44:21.346Z,11.90
2022-10-19T03:46:48.609Z,11.90
2022-10-19T03:49:15.815Z,11.90
2022-10-19T03:51:42.961Z,11.90
2022-10-19T03:54:15.069Z,11.90
2022-10-19T03:56:42.421Z,11.90
2022-10-19T03:59:12.643Z,11.90
2022-10-19T04:01:41.193Z,11.90
2022-10-19T04:04:11.606Z,11.90
2022-10-19T04:06:39.923Z,11.90
2022-10-19T04:09:07.438Z,11.90
2022-10-19T04:11:35.004Z,11.90
2022-10-19T04:14:02.593Z,11.90
2022-10-19T04:16:33.340Z,11.90
2022-10-19T04:19:01.006Z,11.90
2022-10-19T04:21:29.035Z,11.90
2022-10-19T04:24:01.500Z,11.90
2022-10-19T04:26:28.756Z,11.90
2022-10-19T04:28:58.593Z,11.90
2022-10-19T04:31:26.216Z,11.90
2022-10-19T04:33:53.326Z,11.90
2022-10-19T04:36:20.477Z,11.90
2022-10-19T04:38:47.701Z,11.90
2022-10-19T04:41:16.419Z,11.90
2022-10-19T04:43:45.403Z,11.80
2022-10-19T04:46:17.638Z,11.80
2022-10-19T04:48:45.497Z,11.80
2022-10-19T04:51:12.870Z,11.90
2022-10-19T04:53:40.534Z,11.90
2022-10-19T04:56:08.991Z,11.90
2022-10-19T04:58:36.201Z,11.90
2022-10-19T05:01:10.319Z,11.90
2022-10-19T05:03:37.461Z,11.90
2022-10-19T05:06:04.889Z,11.90
2022-10-19T05:08:32.323Z,12.00
2022-10-19T05:11:06.708Z,11.90
2022-10-19T05:13:34.205Z,11.90
2022-10-19T05:16:02.148Z,11.90
2022-10-19T05:18:29.748Z,11.90
2022-10-19T05:21:10.846Z,12.00
2022-10-19T05:23:40.412Z,12.00
2022-10-19T05:26:15.642Z,12.00
2022-10-19T05:28:42.769Z,12.00
2022-10-19T05:31:18.119Z,11.90
2022-10-19T05:33:45.745Z,11.90
2022-10-19T05:36:32.558Z,11.90
2022-10-19T05:39:06.679Z,11.90
2022-10-19T05:41:33.989Z,11.90
2022-10-19T05:44:02.295Z,11.90
2022-10-19T05:46:29.988Z,11.90
2022-10-19T05:48:57.670Z,11.90
2022-10-19T05:51:25.255Z,11.90
2022-10-19T05:53:53.644Z,11.90
2022-10-19T05:56:22.514Z,11.90
2022-10-19T05:58:49.957Z,11.80
2022-10-19T06:01:19.106Z,11.80
2022-10-19T06:03:46.880Z,11.90
2022-10-19T06:06:13.970Z,11.90
2022-10-19T06:08:41.055Z,11.90
2022-10-19T06:11:10.119Z,11.90
2022-10-19T06:13:37.782Z,12.00
2022-10-19T06:16:06.206Z,12.00
2022-10-19T06:18:33.911Z,12.00
2022-10-19T06:21:05.170Z,12.00
2022-10-19T06:23:35.614Z,12.00
2022-10-19T06:26:03.650Z,12.10
2022-10-19T06:28:33.681Z,12.10
2022-10-19T06:31:01.157Z,12.10
2022-10-19T06:33:28.426Z,12.20
2022-10-19T06:35:55.701Z,12.20
2022-10-19T06:38:23.529Z,12.20
2022-10-19T06:40:50.786Z,12.30
2022-10-19T06:43:18.129Z,12.30
2022-10-19T06:45:45.543Z,12.30
2022-10-19T06:48:12.664Z,12.30
2022-10-19T06:50:59.860Z,12.30
2022-10-19T06:53:29.788Z,12.30
2022-10-19T06:56:01.038Z,12.30
2022-10-19T06:58:28.374Z,12.30
2022-10-19T07:00:59.766Z,12.30
2022-10-19T07:03:28.069Z,12.40
2022-10-19T07:06:02.587Z,12.40
2022-10-19T07:08:31.187Z,12.50
2022-10-19T07:11:02.889Z,12.50
2022-10-19T07:13:30.927Z,12.50
2022-10-19T07:16:06.961Z,12.60
2022-10-19T07:18:34.955Z,12.70
2022-10-19T07:21:03.345Z,12.70
2022-10-19T07:23:31.738Z,12.70
2022-10-19T07:26:04.052Z,12.80
2022-10-19T07:28:35.360Z,12.80
2022-10-19T07:31:10.140Z,12.90
2022-10-19T07:33:37.657Z,12.90
2022-10-19T07:36:07.150Z,13.00
2022-10-19T07:38:34.295Z,13.00
2022-10-19T07:41:07.125Z,13.10
2022-10-19T07:43:34.386Z,13.10
2022-10-19T07:46:02.762Z,13.20
2022-10-19T07:48:30.066Z,13.20
2022-10-19T07:50:57.318Z,13.30
2022-10-19T07:53:24.614Z,13.30
2022-10-19T07:55:52.336Z,13.40
2022-10-19T07:58:19.415Z,13.40
2022-10-19T08:00:46.592Z,13.50
2022-10-19T08:06:05.558Z,13.60
2022-10-19T08:08:32.834Z,13.70
2022-10-19T08:11:10.096Z,13.70
2022-10-19T08:13:37.387Z,13.80
2022-10-19T08:16:04.917Z,13.90
2022-10-19T08:21:04.767Z,13.90
2022-10-19T08:23:31.845Z,13.90
2022-10-19T08:25:59.781Z,14.00
2022-10-19T08:28:27.004Z,14.00
2022-10-19T08:30:58.390Z,14.10
2022-10-19T08:33:26.247Z,14.20
2022-10-19T08:36:11.594Z,14.20
2022-10-19T08:38:38.936Z,14.30
2022-10-19T08:41:26.750Z,14.40
2022-10-19T08:43:54.099Z,14.40
2022-10-19T08:46:36.427Z,14.50
2022-10-19T08:49:03.834Z,14.60
2022-10-19T08:51:34.378Z,14.70
2022-10-19T08:54:02.702Z,14.70
2022-10-19T08:56:51.073Z,14.70
2022-10-19T08:59:18.412Z,14.80
2022-10-19T09:01:59.019Z,14.80
2022-10-19T09:04:38.216Z,14.80
2022-10-19T09:07:23.798Z,14.80
2022-10-19T09:10:10.356Z,14.80
2022-10-19T09:12:40.612Z,14.80
2022-10-19T09:15:08.017Z,14.80
2022-10-19T09:17:35.550Z,14.90
2022-10-19T09:20:14.972Z,14.90
2022-10-19T09:22:42.390Z,14.80
2022-10-19T09:25:22.276Z,14.80
2022-10-19T09:27:53.506Z,14.80
2022-10-19T09:30:22.951Z,14.80
2022-10-19T09:33:03.450Z,14.90
2022-10-19T09:35:39.568Z,15.00
2022-10-19T09:38:07.379Z,15.00
2022-10-19T09:40:35.268Z,15.10
2022-10-19T09:43:19.164Z,15.20
2022-10-19T09:45:53.544Z,15.30
2022-10-19T09:48:40.161Z,15.40
2022-10-19T09:51:12.314Z,15.40
2022-10-19T09:53:46.123Z,15.50
2022-10-19T09:56:24.643Z,15.50
2022-10-19T09:58:57.595Z,15.70
2022-10-19T10:01:41.914Z,15.80
2022-10-19T10:04:17.230Z,15.80
2022-10-19T10:06:46.509Z,15.80
2022-10-19T10:09:18.108Z,15.80
2022-10-19T10:12:18.011Z,15.80
2022-10-19T10:14:48.512Z,15.80
2022-10-19T10:17:21.092Z,15.70
2022-10-19T10:20:02.777Z,15.70
2022-10-19T10:22:44.933Z,15.80
2022-10-19T10:25:16.996Z,15.80
2022-10-19T10:27:58.432Z,15.80
2022-10-19T10:30:25.743Z,15.80
2022-10-19T10:32:57.991Z,15.80
2022-10-19T10:35:35.539Z,15.80
2022-10-19T10:38:14.885Z,15.90
2022-10-19T10:41:20.252Z,15.80
2022-10-19T10:44:41.157Z,15.90
2022-10-19T10:47:21.481Z,15.80
2022-10-19T10:50:21.915Z,15.80
2022-10-19T10:53:00.742Z,15.80
2022-10-19T10:55:28.775Z,15.80
2022-10-19T10:58:18.880Z,15.90
2022-10-19T11:00:46.402Z,15.90
2022-10-19T11:03:16.239Z,16.00
2022-10-19T11:05:48.182Z,16.00
2022-10-19T11:08:38.512Z,16.20
2022-10-19T11:11:10.796Z,16.30
2022-10-19T11:13:53.377Z,16.30
2022-10-19T11:16:24.374Z,16.40
2022-10-19T11:19:16.040Z,16.30
2022-10-19T11:22:04.251Z,16.30
2022-10-19T11:24:49.060Z,16.00
2022-10-19T11:27:30.322Z,15.90
2022-10-19T11:30:13.950Z,15.90
2022-10-19T11:32:59.776Z,15.80
2022-10-19T11:35:47.675Z,15.90
2022-10-19T11:38:40.589Z,16.00
2022-10-19T11:41:30.975Z,16.10
2022-10-19T11:44:19.667Z,16.10
2022-10-19T11:47:05.001Z,16.20
2022-10-19T11:49:39.834Z,16.20
2022-10-19T11:52:18.708Z,16.20
2022-10-19T11:55:14.030Z,16.20
2022-10-19T11:57:53.458Z,16.20
2022-10-19T12:00:38.263Z,16.10
2022-10-19T12:03:25.609Z,16.10
2022-10-19T12:06:12.109Z,16.10
2022-10-19T12:08:42.664Z,16.00
2022-10-19T12:11:54.507Z,16.10
2022-10-19T12:14:31.108Z,16.00
2022-10-19T12:17:06.027Z,16.00
2022-10-19T12:19:39.578Z,16.00
2022-10-19T12:22:07.615Z,15.90
2022-10-19T12:24:34.799Z,16.00
2022-10-19T12:27:01.969Z,16.10
2022-10-19T12:29:36.683Z,16.20
2022-10-19T12:32:04.044Z,16.40
2022-10-19T12:38:05.749Z,16.30
2022-10-19T12:40:58.861Z,16.30
2022-10-19T12:43:36.734Z,16.40
2022-10-19T12:46:49.904Z,16.40
2022-10-19T12:49:50.743Z,16.40
2022-10-19T12:52:48.891Z,16.50
2022-10-19T12:55:16.179Z,16.50
2022-10-19T12:57:48.412Z,16.60
2022-10-19T13:00:26.020Z,16.50
2022-10-19T13:03:16.360Z,16.50
2022-10-19T13:05:43.468Z,16.60
2022-10-19T13:08:33.204Z,16.60
2022-10-19T13:11:10.244Z,16.50
2022-10-19T13:14:07.530Z,16.50
2022-10-19T13:16:37.838Z,16.50
2022-10-19T13:19:06.223Z,16.40
2022-10-19T13:21:46.072Z,16.30
2022-10-19T13:24:25.453Z,16.30
2022-10-19T13:27:11.068Z,16.30
2022-10-19T13:29:42.038Z,16.30
2022-10-19T13:32:38.444Z,16.20
2022-10-19T13:35:21.227Z,16.30
2022-10-19T13:38:18.595Z,16.30
2022-10-19T13:40:50.002Z,16.10
2022-10-19T13:43:22.854Z,16.00
2022-10-19T13:45:59.902Z,16.00
2022-10-19T13:48:56.417Z,16.00
2022-10-19T13:51:27.866Z,16.10
2022-10-19T13:54:25.921Z,16.00
2022-10-19T13:57:19.173Z,16.00
2022-10-19T14:00:20.478Z,16.00
2022-10-19T14:03:19.558Z,16.00
2022-10-19T14:06:05.213Z,16.00
2022-10-19T14:08:58.110Z,15.90
2022-10-19T14:11:32.732Z,15.90
2022-10-19T14:14:18.484Z,15.80
2022-10-19T14:16:59.646Z,15.80
2022-10-19T14:19:31.079Z,15.80
2022-10-19T14:22:03.021Z,15.80
2022-10-19T14:24:35.130Z,15.90
2022-10-19T14:27:08.980Z,15.90
2022-10-19T14:29:49.646Z,16.00
2022-10-19T14:32:17.674Z,15.90
2022-10-19T14:34:46.314Z,15.90
2022-10-19T14:37:18.368Z,16.00
2022-10-19T14:40:07.687Z,16.10
2022-10-19T14:42:42.537Z,16.20
2022-10-19T14:45:15.137Z,16.20
2022-10-19T14:47:56.846Z,16.20
2022-10-19T14:50:35.120Z,16.20
2022-10-19T14:53:17.136Z,16.10
2022-10-19T14:55:44.263Z,16.00
2022-10-19T14:58:18.915Z,16.00
2022-10-19T15:00:52.124Z,16.00
2022-10-19T15:03:42.871Z,16.00
2022-10-19T15:06:24.458Z,16.10
2022-10-19T15:09:30.245Z,16.10
2022-10-19T15:12:12.378Z,16.30
2022-10-19T15:14:52.194Z,16.30
2022-10-19T15:17:51.223Z,16.40
2022-10-19T15:23:56.268Z,16.10
2022-10-19T15:26:42.204Z,16.00
2022-10-19T15:29:37.516Z,15.80
2022-10-19T15:32:33.932Z,15.70
2022-10-19T15:35:51.943Z,15.60
2022-10-19T15:38:34.512Z,15.60
2022-10-19T15:41:20.293Z,15.50
2022-10-19T15:43:54.151Z,15.50
2022-10-19T15:46:34.548Z,15.50
2022-10-19T15:49:25.776Z,15.50
2022-10-19T15:51:54.157Z,15.40
2022-10-19T15:54:22.038Z,15.30
2022-10-19T15:56:52.527Z,15.30
2022-10-19T15:59:21.515Z,15.20
2022-10-19T16:01:52.634Z,15.10
2022-10-19T16:04:26.981Z,15.10
2022-10-19T16:06:54.084Z,15.10
2022-10-19T16:09:21.736Z,15.00
2022-10-19T16:11:50.333Z,14.90
2022-10-19T16:16:44.487Z,14.80
2022-10-19T16:19:12.292Z,14.80
2022-10-19T16:21:39.638Z,14.70
2022-10-19T16:24:06.956Z,14.70
2022-10-19T16:26:34.294Z,14.70
2022-10-19T16:29:07.378Z,14.70
2022-10-19T16:31:34.500Z,14.60
2022-10-19T16:34:01.865Z,14.60
2022-10-19T16:36:29.775Z,14.50
2022-10-19T16:38:59.783Z,14.50
2022-10-19T16:41:27.140Z,14.40
2022-10-19T16:43:55.259Z,14.40
2022-10-19T16:46:23.167Z,14.40
2022-10-19T16:48:50.480Z,14.30
2022-10-19T16:51:26.627Z,14.30
2022-10-19T16:53:57.247Z,14.30
2022-10-19T16:56:25.402Z,14.30
2022-10-19T16:59:01.281Z,14.20
2022-10-19T17:01:31.520Z,14.20
2022-10-19T17:03:58.790Z,14.20
2022-10-19T17:06:26.480Z,14.20
2022-10-19T17:09:30.180Z,14.10
2022-10-19T17:11:42.748Z,14.10
2022-10-19T17:14:12.305Z,14.10
2022-10-19T17:16:39.896Z,14.10
2022-10-19T17:19:09.642Z,14.10
2022-10-19T17:21:38.851Z,14.10
2022-10-19T17:24:07.864Z,14.10
2022-10-19T17:26:38.234Z,14.10
2022-10-19T17:29:06.175Z,14.10
2022-10-19T17:31:33.704Z,14.00
2022-10-19T17:34:06.336Z,14.00
2022-10-19T17:36:42.356Z,14.10
2022-10-19T17:39:25.539Z,14.00
2022-10-19T17:42:04.433Z,14.00
2022-10-19T17:44:34.385Z,14.00
2022-10-19T17:47:04.454Z,14.00
2022-10-19T17:49:32.866Z,14.00
2022-10-19T17:52:03.602Z,14.00
2022-10-19T17:54:48.573Z,14.10
2022-10-19T17:57:37.887Z,14.10
2022-10-19T18:00:09.971Z,14.10
2022-10-19T18:02:41.034Z,14.10
2022-10-19T18:05:09.268Z,14.10
2022-10-19T18:07:36.963Z,14.10
2022-10-19T18:10:04.713Z,14.10
2022-10-19T18:12:32.023Z,14.10
2022-10-19T18:14:59.913Z,14.10
2022-10-19T18:17:27.919Z,14.10
2022-10-19T18:19:55.648Z,14.10
2022-10-19T18:22:23.509Z,14.20
2022-10-19T18:24:50.811Z,14.20
2022-10-19T18:27:18.073Z,14.30
2022-10-19T18:29:45.536Z,14.30
2022-10-19T18:32:13.031Z,14.30
2022-10-19T18:34:40.239Z,14.30
2022-10-19T18:37:07.535Z,14.30
2022-10-19T18:39:34.963Z,14.40
2022-10-19T18:42:02.397Z,14.30
2022-10-19T18:44:33.504Z,14.40
2022-10-19T18:47:04.312Z,14.40
2022-10-19T18:49:31.574Z,14.40
2022-10-19T18:51:58.797Z,14.40
2022-10-19T18:54:29.067Z,14.40
2022-10-19T18:56:56.931Z,14.40
2022-10-19T18:59:25.147Z,14.50
2022-10-19T19:01:54.869Z,14.40
2022-10-19T19:04:21.978Z,14.40
2022-10-19T19:06:49.810Z,14.40
2022-10-19T19:09:19.095Z,14.40
2022-10-19T19:11:46.345Z,14.40
2022-10-19T19:14:15.179Z,14.40
2022-10-19T19:16:42.920Z,14.40
2022-10-19T19:19:11.221Z,14.40
2022-10-19T19:21:38.627Z,14.40
2022-10-19T19:24:07.033Z,14.40
2022-10-19T19:26:38.042Z,14.40
2022-10-19T19:29:05.647Z,14.40
2022-10-19T19:31:32.924Z,14.40
2022-10-19T19:34:01.569Z,14.40
2022-10-19T19:36:29.046Z,14.40
2022-10-19T19:39:00.077Z,14.40
2022-10-19T19:41:29.092Z,14.40
2022-10-19T19:44:00.625Z,14.40
2022-10-19T19:46:27.961Z,14.40
2022-10-19T19:49:00.196Z,14.40
2022-10-19T19:51:30.896Z,14.40
2022-10-19T19:54:02.583Z,14.40
2022-10-19T19:56:35.667Z,14.50
2022-10-19T19:59:05.446Z,14.50
2022-10-19T20:01:36.025Z,14.50
2022-10-19T20:06:36.491Z,14.50
2022-10-19T20:09:04.148Z,14.50
2022-10-19T20:11:37.155Z,14.50
2022-10-19T20:14:21.045Z,14.50
2022-10-19T20:19:43.831Z,14.50
2022-10-19T20:22:11.419Z,14.50
2022-10-19T20:25:07.590Z,14.50
2022-10-19T20:27:51.683Z,14.50
2022-10-19T20:34:20.583Z,14.50
2022-10-19T20:40:54.768Z,14.50
2022-10-19T20:43:50.675Z,14.40
2022-10-19T20:46:37.803Z,14.40
2022-10-19T20:49:13.851Z,14.30
2022-10-19T20:51:44.031Z,14.30
2022-10-19T20:54:15.001Z,14.30
2022-10-19T20:56:42.482Z,14.30
2022-10-19T20:59:12.993Z,14.20
2022-10-19T21:01:40.436Z,14.20
2022-10-19T21:04:09.036Z,14.10
2022-10-19T21:06:39.324Z,14.10
2022-10-19T21:09:06.768Z,14.10
2022-10-19T21:11:35.812Z,14.00
2022-10-19T21:18:19.860Z,14.00
2022-10-19T21:33:27.150Z,14.00
2022-10-19T21:40:29.421Z,14.10
2022-10-19T21:49:40.065Z,14.30
2022-10-19T22:59:37.372Z,14.20
2022-10-19T23:05:32.483Z,14.20
2022-10-19T23:08:33.914Z,14.20
2022-10-19T23:11:22.762Z,14.20
2022-10-19T23:13:52.360Z,14.30
2022-10-19T23:16:25.933Z,14.30
2022-10-19T23:18:54.747Z,14.30
2022-10-19T23:21:25.792Z,14.20
2022-10-19T23:23:55.561Z,14.30
2022-10-19T23:26:26.595Z,14.30
2022-10-19T23:28:55.148Z,14.30
2022-10-19T23:31:26.992Z,14.30
2022-10-19T23:33:57.469Z,14.40
2022-10-19T23:36:38.742Z,14.40
2022-10-19T23:39:24.517Z,14.30
2022-10-19T23:45:47.866Z,14.10
